May 17, 2022

Time Code Weather Temp. Visibility Clouds Wind METAR/SPECI
1:00 am
V
48 °F 20 mi 14,000 ft 030°   030° 10 kt METAR CYEG 170700Z 03010KT 20SM FEW080CB SCT120 BKN140 BKN240 09/04 A2978 RMK CB1AC3AC1CI2 CB SH FRQ LTGIC DIST NW QUAD MOV NE-E SLP095 DENSITY ALT 2400FT
12:00 am
V
52 °F 20 mi 24,000 ft 090°   090° 10 kt METAR CYEG 170600Z 09010KT 20SM FEW080CB FEW110 SCT140 BKN240 11/04 A2975 RMK CB1ACC1AC2CI3 CB OCNL LTGIC DIST W-NW MOV NE-E ACC SH N + DIST SE-S SLP082 DENSITY ALT 2700FT

May 16, 2022

Time Code Weather Temp. Visibility Clouds Wind METAR/SPECI
11:00 pm
V
52 °F 20 mi 25,000 ft 070°   070° 10 kt METAR CYEG 170500Z 07010KT 20SM FEW110 SCT140 BKN250 11/05 A2974 RMK ACC1AC3CI3 ACC N QUAD SLP078 DENSITY ALT 2700FT
10:00 pm
V
54 °F 20 mi 25,000 ft 080°   080° 12 kt METAR CYEG 170400Z 08012KT 20SM FEW080CB SCT120 BKN250 12/06 A2973 RMK CB2AC2CI3 CB SH NE QUAD + DIST SE QUAD MOV NE-E SLP078 DENSITY ALT 2900FT
9:21 pm
V
55 °F 20 mi 13,000 ft 060°   060° 14 kt METAR CYEG 170321Z 06014KT 040V100 20SM SCT080CB BKN130 BKN250 13/05 A2974 RMK CB3AC2CI2 CB SH N-E-S MOV NE-E OCNL LTGIC DIST N-NE SLP079 DENSITY ALT 2900FT
9:00 pm
V
55 °F 20 mi 12,000 ft 070°   070° 7 kt METAR CYEG 170300Z CCA 07007KT 20SM -TSRA SCT080CB BKN120 BKN250 13/07 A2974 RMK CB4AC1CI2 CB OHD N-E-S MOV E OCNL LTGIC E SLP081 DENSITY ALT 2900FT
8:39 pm
V
59 °F 15 mi 14,000 ft 170°   170° 7 kt METAR CYEG 170239Z CCA 17007KT 15SM -TSRA SCT080CB BKN140 BKN250 15/05 A2977 RMK CB4AC2CI1 CB LTGIC OHD NE-E-S MOV E WSHFT 0224 PRESRR SLP089 DENSITY ALT 3100FT
8:22 pm
V
63 °F 20 mi 7,900 ft 120°   120° 13 19 kt METAR CYEG 170222Z CCA 12013G19KT 20SM -TSRA BKN079CB BKN100 BKN140 BKN250 17/02 A2974 RMK CB5ACC1AC2CI1 ACC TR CI TR CB SE-SW-W-N MOV E LTGIC OHD SW-W VIS W QUAD 10 PRESRR SLP078 DENSITY ALT 3400FT
8:08 pm
V
63 °F 20 mi 10,000 ft 100°   100° 19 kt METAR CYEG 170208Z 10019KT 20SM TS SCT085CB BKN100 BKN140 BKN250 17/02 A2971 RMK CB4ACC1AC2CI1 CI TR CB SH S-W-N MOV E LTGIC W SLP068 DENSITY ALT 3400FT
8:00 pm
V
63 °F 20 mi 14,000 ft 090°   090° 18 23 kt METAR CYEG 170200Z 09018G23KT 20SM SCT080CB SCT100 BKN140 BKN250 17/02 A2971 RMK CB3ACC1AC2CI1 CB SH S-W-N MOV E SLP067 DENSITY ALT 3400FT
7:00 pm
V
64 °F 20 mi 25,000 ft 100°   100° 18 26 kt METAR CYEG 170100Z 10018G26KT 20SM FEW090 FEW110 BKN250 18/02 A2970 RMK ACC2AC1CI5 AC TR SH SW QUAD SLP065 DENSITY ALT 3600FT
6:00 pm
V
68 °F 20 mi 25,000 ft 100°   100° 18 26 kt METAR CYEG 170000Z 10018G26KT 20SM FEW085 FEW110 BKN250 20/03 A2972 RMK CU1AC1CI7 CU TR AC TR SLP069 DENSITY ALT 3800FT
5:00 pm
V
70 °F 20 mi 25,000 ft 110°   110° 16 27 kt METAR CYEG 162300Z 11016G27KT 20SM FEW085 FEW110 BKN250 21/03 A2973 RMK CU1AC1CI6 AC TR SLP073 DENSITY ALT 3900FT
4:00 pm
V
70 °F 20 mi 25,000 ft 100°   100° 19 24 kt METAR CYEG 162200Z 10019G24KT 20SM SCT085 SCT110 BKN250 21/03 A2974 RMK CU4AC1CI1 AC TR SLP076 DENSITY ALT 3800FT
3:00 pm
V
66 °F 20 mi 7,500 ft 110°   110° 15 20 kt METAR CYEG 162100Z 11015G20KT 20SM BKN075 BKN110 19/02 A2976 RMK CU5AC2 SLP084 DENSITY ALT 3600FT
2:00 pm
V
68 °F 20 mi 9,400 ft 100°   100° 16 21 kt METAR CYEG 162000Z 10016G21KT 090V160 20SM SCT068 BKN094 BKN250 20/02 A2978 RMK CU3AC4CI1 CI TR VIRGA PTCHS SLP087 DENSITY ALT 3700FT
1:00 pm
V
64 °F 20 mi 9,500 ft 110°   110° 17 24 kt METAR CYEG 161900Z 11017G24KT 20SM FEW056 BKN095 BKN250 18/04 A2978 RMK CU1AC6CI1 CI TR VIRGA PTCHS SLP090 DENSITY ALT 3500FT
12:00 pm
V
64 °F 20 mi 11,000 ft 130°   130° 12 20 kt METAR CYEG 161800Z 13012G20KT 20SM FEW056 BKN110 18/04 A2979 RMK CU1AC7 CU TR VIRGA PTCHS SLP093 DENSITY ALT 3500FT
11:00 am
V
63 °F 20 mi 9,500 ft 140°   140° 15 kt METAR CYEG 161700Z 14015KT 20SM BKN095 BKN120 17/03 A2980 RMK AC5AC2 VIRGA PTCHS SLP097 DENSITY ALT 3400FT
10:00 am
V
59 °F 20 mi 8,100 ft 130°   130° 16 23 kt METAR CYEG 161600Z 13016G23KT 20SM BKN081 15/02 A2981 RMK AC7 VIRGA PTCHS SLP103 DENSITY ALT 3000FT
9:00 am
V
57 °F 20 mi 9,200 ft 130°   130° 13 19 kt METAR CYEG 161500Z 13013G19KT 20SM FEW048 BKN092 BKN250 14/02 A2981 RMK CF1AC7CI1 CF TR CI TR VIRGA PTCHS SLP102 DENSITY ALT 3000FT
8:00 am
V
55 °F 20 mi 9,000 ft 120°   120° 16 22 kt METAR CYEG 161400Z 12016G22KT 20SM BKN090 BKN100 13/02 A2981 RMK AC6AC1 VIRGA N QUAD SLP101 DENSITY ALT 2900FT
7:00 am
V
54 °F 20 mi 8,100 ft 110°   110° 15 kt METAR CYEG 161300Z 11015KT 20SM BKN081 12/M00 A2980 RMK AC7 VIRGA SW QUAD SLP099 DENSITY ALT 2700FT
6:00 am
V
52 °F 20 mi 8,000 ft 100°   100° 15 21 kt METAR CYEG 161200Z 10015G21KT 20SM BKN080 BKN100 11/M02 A2980 RMK AC6AC1 VIRGA OHD SE QUAD SLP097 DENSITY ALT 2700FT
5:00 am
V
52 °F 20 mi 9,600 ft 120°   120° 17 kt METAR CYEG 161100Z 12017KT 20SM BKN096 OVC150 11/M02 A2981 RMK AC6AS2 VIRGA PTCHS SLP102 DENSITY ALT 2700FT
4:00 am
V
54 °F 20 mi 15,000 ft 120°   120° 16 kt METAR CYEG 161000Z 12016KT 20SM SCT100 OVC150 12/M03 A2981 RMK AC3AS5 VIRGA N QUAD SLP101 DENSITY ALT 2700FT
3:00 am
V
54 °F 20 mi 9,800 ft 110°   110° 18 kt METAR CYEG 160900Z 11018KT 20SM OVC098 12/M03 A2981 RMK AC8 VIRGA ALQDS SLP102 DENSITY ALT 2800FT
2:00 am
V
55 °F 20 mi 9,500 ft 110°   110° 19 24 kt METAR CYEG 160800Z 11019G24KT 20SM OVC095 13/M03 A2982 RMK AC8 VIRGA PTCHS SLP105 DENSITY ALT 2800FT
1:00 am
V
55 °F 20 mi 10,000 ft 110°   110° 17 kt METAR CYEG 160700Z 11017KT 20SM OVC100 13/M03 A2982 RMK AC8 SLP104 DENSITY ALT 2900FT
12:00 am
V
57 °F 20 mi 10,000 ft 100°   100° 16 kt METAR CYEG 160600Z 10016KT 20SM BKN100 OVC250 14/M03 A2982 RMK AC7CI1 SLP105 DENSITY ALT 3000FT

May 15, 2022

Time Code Weather Temp. Visibility Clouds Wind METAR/SPECI
11:00 pm
V
57 °F 20 mi 10,000 ft 090°   090° 12 kt METAR CYEG 160500Z 09012KT 20SM BKN100 BKN120 OVC250 14/M02 A2983 RMK AC6AC1CI1 SLP110 DENSITY ALT 2900FT
10:00 pm
V
59 °F 20 mi 11,000 ft 090°   090° 10 kt METAR CYEG 160400Z 09010KT 20SM BKN110 BKN250 15/M03 A2984 RMK AC6CI1 SLP112 DENSITY ALT 3000FT
9:00 pm
V
61 °F 20 mi 25,000 ft 090°   090° 8 kt METAR CYEG 160300Z 09008KT 20SM FEW110 FEW150 BKN250 16/M04 A2984 RMK AC1AC1CI6 AC TR UPR LENT NW SLP115 DENSITY ALT 3200FT
8:00 pm
V
64 °F 20 mi 25,000 ft 080°   080° 11 kt METAR CYEG 160200Z 08011KT 20SM FEW110 FEW150 BKN250 18/M05 A2985 RMK AC1AC1CI5 AC TR LWR SLP118 DENSITY ALT 3400FT
7:00 pm
V
66 °F 20 mi 11,000 ft 100°   100° 10 kt METAR CYEG 160100Z 10010KT 20SM BKN110 BKN150 BKN250 19/M06 A2987 RMK CU6AC1CI1 AC TR SLP128 DENSITY ALT 3500FT
6:00 pm
V
68 °F 20 mi 10,000 ft 110°   110° 8 kt METAR CYEG 160000Z 11008KT 20SM BKN100 BKN250 20/M05 A2988 RMK CU7CI1 CI TR SLP136 DENSITY ALT 3500FT
5:00 pm
V
66 °F 20 mi 11,000 ft 160°   160° 11 kt METAR CYEG 152300Z 16011KT 080V210 20SM BKN110 BKN250 19/M06 A2990 RMK CU7CI1 CI TR SLP143 DENSITY ALT 3400FT
4:00 pm
V
66 °F 20 mi 10,000 ft Var   Var 9 15 kt METAR CYEG 152200Z VRB09G15KT 20SM BKN100 BKN250 19/M06 A2992 RMK CU7CI1 CI TR SLP145 DENSITY ALT 3500FT
3:00 pm
V
66 °F 20 mi 9,800 ft 320°   320° 4 kt METAR CYEG 152100Z 32004KT 240V360 20SM BKN098 BKN250 19/M04 A2993 RMK CU5CI2 SLP149 DENSITY ALT 3400FT
2:00 pm
V
64 °F 20 mi - Var   Var 7 kt METAR CYEG 152000Z VRB07KT 20SM FEW098 SCT250 18/M05 A2995 RMK CU2CI2 SLP155 DENSITY ALT 3200FT
1:00 pm
V
63 °F 20 mi 25,000 ft 120°   120° 6 kt METAR CYEG 151900Z 12006KT 040V160 20SM FEW090 BKN250 17/M05 A2997 RMK CU1CI5 SLP165 DENSITY ALT 3200FT
12:00 pm
V
61 °F 20 mi 25,000 ft 170°   170° 4 kt METAR CYEG 151800Z 17004KT 130V230 20SM FEW084 BKN250 16/M05 A2998 RMK CU1CI7 CU TR SLP171 DENSITY ALT 3000FT
11:00 am
V
59 °F 20 mi 25,000 ft 100°   100° 4 kt METAR CYEG 151700Z 10004KT 050V140 20SM FEW080 BKN250 BKN270 15/M04 A3000 RMK CF1CI6CS1 CF TR SLP177 DENSITY ALT 2900FT
10:00 am
V
57 °F 20 mi 25,000 ft 080°   080° 5 kt METAR CYEG 151600Z 08005KT 060V140 20SM BKN250 14/M03 A3001 RMK CS7 SLP176 DENSITY ALT 2800FT
9:00 am
V
52 °F 20 mi 25,000 ft Var   000° 0 kt METAR CYEG 151500Z 00000KT 20SM FEW110 BKN250 11/M03 A3001 RMK AC1CI7 AC TR SLP176 DENSITY ALT 2400FT
8:00 am
V
46 °F 20 mi 24,000 ft 270°   270° 3 kt METAR CYEG 151400Z 27003KT 20SM FEW110 BKN240 08/M03 A3002 RMK AC1CI5 AC TR CONTRAILS SLP178
7:00 am
V
39 °F 20 mi 24,000 ft 210°   210° 3 kt METAR CYEG 151300Z 21003KT 20SM FEW110 BKN240 04/M02 A3002 RMK AC1CI6 AC TR SLP182
6:00 am
V
30 °F 20 mi - Var   Var 2 kt METAR CYEG 151200Z VRB02KT 20SM FEW110 FEW240 M01/M05 A3000 RMK AC1CI1 AC TR CI TR SLP180
5:00 am
V
28 °F 20 mi - 200°   200° 3 kt METAR CYEG 151100Z 20003KT 20SM FEW110 M02/M06 A2999 RMK AC1 AC TR SLP180
4:00 am
V
37 °F 20 mi - Var   000° 0 kt METAR CYEG 151000Z 00000KT 20SM FEW110 03/M03 A3000 RMK AC2 SLP177
3:00 am
V
39 °F 20 mi 11,000 ft 210°   210° 4 kt METAR CYEG 150900Z 21004KT 20SM BKN110 04/M03 A2999 RMK AC7 SLP174
2:00 am
V
39 °F 20 mi 11,000 ft 190°   190° 2 kt METAR CYEG 150800Z 19002KT 20SM FEW095 BKN110 04/M04 A2998 RMK AC2AC5 SLP171
1:00 am
V
39 °F 20 mi 11,000 ft 200°   200° 5 kt METAR CYEG 150700Z 20005KT 20SM BKN110 04/M04 A2997 RMK AC7 VIRGA N QUAD SLP169
Older data

Download our app

Easy access to all aviation weather on your mobile phone and tablet.
With many features not available on the website, like offline support and a personal airport list.